createdAt,value
2018-03-02T00:02:35.642Z,43.33
2018-03-02T00:17:39.471Z,37.28
2018-03-02T00:32:34.680Z,35.67
2018-03-02T00:47:36.643Z,30.30
2018-03-02T01:02:35.910Z,21.33
2018-03-02T01:17:36.665Z,21.55
2018-03-02T01:32:36.819Z,21.27
2018-03-02T01:47:35.628Z,22.62
2018-03-02T02:02:35.474Z,22.50
2018-03-02T02:17:36.415Z,23.75
2018-03-02T02:32:37.794Z,25.20
2018-03-02T02:47:36.466Z,26.10
2018-03-02T03:02:41.865Z,22.15
2018-03-02T03:17:34.515Z,22.62
2018-03-02T03:32:35.414Z,22.65
2018-03-02T03:47:34.950Z,24.65
2018-03-02T04:02:36.882Z,25.90
2018-03-02T04:17:35.803Z,25.45
2018-03-02T04:32:33.818Z,25.67
2018-03-02T04:47:34.272Z,26.27
2018-03-02T05:02:35.062Z,26.50
2018-03-02T05:17:38.061Z,25.10
2018-03-02T05:32:34.456Z,24.70
2018-03-02T05:47:34.371Z,23.70
2018-03-02T06:02:33.306Z,21.83
2018-03-02T06:17:36.676Z,21.92
2018-03-02T06:32:34.589Z,23.98
2018-03-02T06:47:35.554Z,27.83
2018-03-02T07:02:39.446Z,27.13
2018-03-02T07:17:34.660Z,31.07
2018-03-02T07:32:36.876Z,30.20
2018-03-02T07:47:34.754Z,29.80
2018-03-02T08:02:34.638Z,34.90
2018-03-02T08:17:36.986Z,35.80
2018-03-02T09:17:36.635Z,36.17
2018-03-02T09:32:36.339Z,33.50
2018-03-02T09:47:35.261Z,37.50
2018-03-02T10:02:34.513Z,41.23
2018-03-02T10:17:36.979Z,35.83
2018-03-02T10:32:33.711Z,31.40
2018-03-02T10:47:37.932Z,34.60
2018-03-02T11:02:36.323Z,30.87
2018-03-02T11:17:34.693Z,34.80
2018-03-02T11:32:45.052Z,37.07
2018-03-02T11:47:34.721Z,36.47
2018-03-02T12:02:34.462Z,36.70
2018-03-02T12:17:36.808Z,39.47
2018-03-02T12:32:34.872Z,38.33
2018-03-02T12:47:34.811Z,39.87
2018-03-02T13:02:34.625Z,38.30
2018-03-02T13:17:37.978Z,38.70
2018-03-02T13:32:36.479Z,41.67
2018-03-02T14:02:48.720Z,41.00
2018-03-02T14:17:33.448Z,44.07
2018-03-02T14:32:36.416Z,44.67
2018-03-02T14:47:34.399Z,48.60
2018-03-02T15:02:34.322Z,51.67
2018-03-02T15:17:33.664Z,50.93
2018-03-02T15:32:36.747Z,50.87
2018-03-02T15:47:45.888Z,58.50
2018-03-02T16:02:35.983Z,74.67
2018-03-02T16:32:33.925Z,122.37
2018-03-02T16:47:33.884Z,105.00
2018-03-02T17:02:36.774Z,110.50
2018-03-02T17:17:34.756Z,106.67
2018-03-02T17:32:34.782Z,87.77
2018-03-02T17:47:34.619Z,72.10
2018-03-02T18:02:34.725Z,92.67
2018-03-02T18:17:34.950Z,73.93
2018-03-02T18:32:37.904Z,57.00
2018-03-02T18:47:35.000Z,59.90
2018-03-02T19:02:34.232Z,58.47
2018-03-02T19:17:34.214Z,57.43
2018-03-02T19:32:37.225Z,59.13
2018-03-02T19:47:34.406Z,44.60
2018-03-02T20:02:36.268Z,41.97
2018-03-02T20:17:35.583Z,48.13
2018-03-02T20:32:36.678Z,64.43
2018-03-02T20:47:35.430Z,72.67
2018-03-02T21:02:37.501Z,62.00
2018-03-02T21:17:41.005Z,54.70
2018-03-02T21:32:35.782Z,53.43
2018-03-02T21:47:34.630Z,50.97
2018-03-02T22:02:34.700Z,52.60
2018-03-02T22:17:36.885Z,52.13
2018-03-02T22:32:34.931Z,53.80
2018-03-02T22:47:34.750Z,56.90
2018-03-02T23:02:36.763Z,49.80
2018-03-02T23:17:34.708Z,38.50
2018-03-02T23:32:37.069Z,39.30
2018-03-02T23:47:35.044Z,37.67
